Time;durP1;ratioP1;P1;durP2;ratioP2;P2;SDS_P1;SDS_P2;PMS_P1;PMS_P2;Temp;Humidity;BMP_temperature;BMP_pressure;BME280_temperature;BME280_humidity;BME280_pressure;Samples;Min_cycle;Max_cycle;Signal;HPM_P1;HPM_P2
2020/12/06 00:01:27;;;;;;;37.35;25.25;;;5.00;77.30;;;;;;5057144;28;20035;-55
2020/12/06 00:03:53;;;;;;;40.67;27.60;;;4.80;77.70;;;;;;5043672;28;20040;-57
2020/12/06 00:06:20;;;;;;;40.78;27.27;;;4.80;77.90;;;;;;5064462;28;20032;-56
2020/12/06 00:08:53;;;;;;;42.05;27.92;;;4.80;78.00;;;;;;5055657;28;20060;-56
2020/12/06 00:11:19;;;;;;;36.80;26.25;;;4.80;77.90;;;;;;5052024;28;20036;-55
2020/12/06 00:13:47;;;;;;;38.33;25.90;;;4.90;77.80;;;;;;5059386;28;20040;-55
2020/12/06 00:16:14;;;;;;;37.55;26.10;;;4.90;77.50;;;;;;5059297;28;20036;-53
2020/12/06 00:18:41;;;;;;;37.00;26.52;;;4.90;77.70;;;;;;5066792;28;20032;-56
2020/12/06 00:21:11;;;;;;;37.78;26.90;;;4.90;77.70;;;;;;5036352;28;20025;-59
2020/12/06 00:23:48;;;;;;;36.38;25.98;;;4.90;77.30;;;;;;5067242;28;20051;-57
2020/12/06 00:26:18;;;;;;;38.22;26.50;;;4.90;77.60;;;;;;5070806;28;20024;-56
2020/12/06 00:28:44;;;;;;;40.15;27.58;;;4.80;77.70;;;;;;5054686;28;20104;-59
2020/12/06 00:31:12;;;;;;;37.72;25.45;;;4.90;77.40;;;;;;5067342;28;20444;-58
2020/12/06 00:33:37;;;;;;;37.15;25.40;;;4.80;77.40;;;;;;5058073;28;20037;-57
2020/12/06 00:36:03;;;;;;;37.67;25.50;;;4.80;77.90;;;;;;5059925;28;20029;-56
2020/12/06 00:38:29;;;;;;;37.78;26.50;;;4.80;77.60;;;;;;5064909;28;20619;-56
2020/12/06 00:40:54;;;;;;;36.97;25.88;;;4.90;77.70;;;;;;5054147;28;20037;-56
2020/12/06 00:43:20;;;;;;;37.30;25.08;;;4.70;77.90;;;;;;5063345;28;20123;-58
2020/12/06 00:45:45;;;;;;;41.58;25.10;;;4.70;78.10;;;;;;5062220;28;20511;-57
2020/12/06 00:48:11;;;;;;;37.55;25.65;;;4.70;78.40;;;;;;5072360;28;20523;-56
2020/12/06 00:50:36;;;;;;;38.03;25.13;;;4.70;78.10;;;;;;5075641;28;20552;-57
2020/12/06 00:53:02;;;;;;;43.75;30.23;;;4.80;78.10;;;;;;5054189;28;20108;-57
2020/12/06 00:55:28;;;;;;;37.92;25.20;;;4.80;77.90;;;;;;5064328;28;20033;-55
2020/12/06 00:57:54;;;;;;;37.70;24.98;;;4.80;77.80;;;;;;5041730;28;20032;-59
2020/12/06 01:00:19;;;;;;;38.90;26.17;;;4.80;77.90;;;;;;5040007;28;20037;-57
2020/12/06 01:02:45;;;;;;;37.03;24.63;;;4.80;77.80;;;;;;5070308;28;20115;-58
2020/12/06 01:05:11;;;;;;;40.33;25.35;;;4.80;77.70;;;;;;5057777;28;20048;-55
2020/12/06 01:07:40;;;;;;;34.58;24.58;;;4.70;78.00;;;;;;5033288;28;20060;-58
2020/12/06 01:10:07;;;;;;;35.85;25.77;;;4.70;78.10;;;;;;5065602;28;20580;-58
2020/12/06 01:12:33;;;;;;;37.40;26.08;;;4.80;77.80;;;;;;5059617;28;20118;-59
2020/12/06 01:14:59;;;;;;;37.38;25.88;;;4.70;77.90;;;;;;5070447;28;20040;-59
2020/12/06 01:17:24;;;;;;;41.22;25.58;;;4.70;78.00;;;;;;5059640;28;20391;-63
2020/12/06 01:19:50;;;;;;;36.28;25.92;;;4.70;78.00;;;;;;5065583;28;20392;-61
2020/12/06 01:22:15;;;;;;;39.20;26.98;;;4.70;77.90;;;;;;5065043;28;20098;-60
2020/12/06 01:24:41;;;;;;;35.90;24.25;;;4.70;77.90;;;;;;5070711;28;20033;-60
2020/12/06 01:27:07;;;;;;;39.70;26.25;;;4.70;77.90;;;;;;5071192;28;20037;-61
2020/12/06 01:29:32;;;;;;;44.05;27.77;;;4.80;77.80;;;;;;5060509;28;20079;-59
2020/12/06 01:31:58;;;;;;;40.70;27.13;;;4.70;78.10;;;;;;5074355;28;20045;-61
2020/12/06 01:34:23;;;;;;;39.15;26.02;;;4.70;78.20;;;;;;5056725;28;20078;-60
2020/12/06 01:36:52;;;;;;;36.72;24.73;;;4.70;78.00;;;;;;5074300;28;20169;-60
2020/12/06 01:39:19;;;;;;;40.42;26.00;;;4.70;78.10;;;;;;5074535;28;20107;-59
2020/12/06 01:41:44;;;;;;;34.80;24.88;;;4.60;78.10;;;;;;5074565;28;20036;-60
2020/12/06 01:44:10;;;;;;;41.38;26.45;;;4.70;78.30;;;;;;5055244;28;20364;-57
2020/12/06 01:46:37;;;;;;;38.22;25.00;;;4.70;78.30;;;;;;5056049;28;20432;-56
2020/12/06 01:49:07;;;;;;;35.63;24.65;;;4.70;78.20;;;;;;5092453;28;20032;-63
2020/12/06 01:51:34;;;;;;;41.40;27.48;;;4.60;78.40;;;;;;5097414;28;20036;-62
2020/12/06 01:54:00;;;;;;;36.45;25.55;;;4.60;78.60;;;;;;5094355;28;20513;-63
2020/12/06 01:56:25;;;;;;;36.22;25.08;;;4.70;78.00;;;;;;5068238;28;20092;-58
2020/12/06 01:58:51;;;;;;;40.03;26.38;;;4.70;78.10;;;;;;5070358;28;20119;-55
2020/12/06 02:01:17;;;;;;;38.40;24.65;;;4.70;78.10;;;;;;5069881;28;20039;-57
2020/12/06 02:03:43;;;;;;;41.53;24.75;;;4.60;78.50;;;;;;5063386;28;20086;-58
2020/12/06 02:06:09;;;;;;;34.80;24.48;;;4.50;78.80;;;;;;5062620;28;20048;-55
2020/12/06 02:08:35;;;;;;;37.78;24.75;;;4.50;78.60;;;;;;5089285;23;20071;-58
2020/12/06 02:11:01;;;;;;;38.38;25.95;;;4.50;78.60;;;;;;5110953;28;20367;-57
2020/12/06 02:13:26;;;;;;;34.28;23.77;;;4.60;78.50;;;;;;5113609;28;20039;-59
2020/12/06 02:15:54;;;;;;;34.17;24.25;;;4.60;78.40;;;;;;5070561;28;20166;-55
2020/12/06 02:18:20;;;;;;;36.75;24.67;;;4.60;78.20;;;;;;5114125;28;20032;-60
2020/12/06 02:20:45;;;;;;;39.63;24.60;;;4.70;78.10;;;;;;5114431;28;20045;-58
2020/12/06 02:23:11;;;;;;;38.60;26.23;;;4.70;78.10;;;;;;5115892;28;20042;-57
2020/12/06 02:25:37;;;;;;;35.10;23.40;;;4.70;77.90;;;;;;5097506;28;20590;-58
2020/12/06 02:28:04;;;;;;;36.58;24.98;;;4.70;77.80;;;;;;5093846;28;20040;-58
2020/12/06 02:30:31;;;;;;;34.40;24.02;;;4.70;78.00;;;;;;5109409;28;20035;-59
2020/12/06 02:32:56;;;;;;;36.75;23.80;;;4.70;77.80;;;;;;5114559;28;20027;-57
2020/12/06 02:35:22;;;;;;;37.85;25.30;;;4.70;77.70;;;;;;5113641;28;20164;-58
2020/12/06 02:37:48;;;;;;;36.45;24.10;;;4.70;78.00;;;;;;5114275;28;20047;-59
2020/12/06 02:40:13;;;;;;;38.85;24.88;;;4.70;78.10;;;;;;5114071;28;20473;-59
2020/12/06 02:42:39;;;;;;;35.28;23.33;;;4.80;77.90;;;;;;5114100;28;20116;-61
2020/12/06 02:45:05;;;;;;;35.28;24.38;;;4.70;77.80;;;;;;5095724;28;20042;-60
2020/12/06 02:47:30;;;;;;;35.03;24.15;;;4.90;77.50;;;;;;5118156;27;20185;-61
2020/12/06 02:49:56;;;;;;;39.00;25.92;;;4.80;77.30;;;;;;5134219;27;20055;-60
2020/12/06 02:52:22;;;;;;;32.80;23.90;;;4.60;77.80;;;;;;5134336;27;20050;-58
2020/12/06 02:54:47;;;;;;;33.50;23.38;;;4.70;78.30;;;;;;5133984;27;20513;-61
2020/12/06 02:57:13;;;;;;;35.22;23.80;;;4.70;77.80;;;;;;5134404;27;20024;-60
2020/12/06 02:59:39;;;;;;;34.47;22.60;;;4.50;78.10;;;;;;5134182;27;20027;-60
2020/12/06 03:02:04;;;;;;;34.38;23.30;;;4.60;78.20;;;;;;5133913;27;20031;-61
2020/12/06 03:04:30;;;;;;;37.75;24.60;;;4.60;77.90;;;;;;5120423;27;20568;-59
2020/12/06 03:06:56;;;;;;;37.45;25.73;;;4.40;78.60;;;;;;5113307;28;20371;-59
2020/12/06 03:09:21;;;;;;;36.40;25.33;;;4.40;78.90;;;;;;5113121;28;20071;-57
2020/12/06 03:11:47;;;;;;;39.25;27.00;;;4.30;79.80;;;;;;5113227;28;20106;-59
2020/12/06 03:14:13;;;;;;;37.10;25.70;;;4.40;79.20;;;;;;5113431;28;20038;-60
2020/12/06 03:16:39;;;;;;;36.50;24.35;;;4.40;79.30;;;;;;5113396;28;20032;-60
2020/12/06 03:19:05;;;;;;;35.78;25.08;;;4.40;79.50;;;;;;5113553;28;20114;-62
2020/12/06 03:21:30;;;;;;;36.33;24.17;;;4.30;79.50;;;;;;5113578;28;20130;-59
2020/12/06 03:23:56;;;;;;;35.97;24.95;;;4.20;79.90;;;;;;5120032;27;20031;-61
2020/12/06 03:26:22;;;;;;;39.83;26.15;;;4.30;80.10;;;;;;5132750;27;20039;-61
2020/12/06 03:28:47;;;;;;;36.72;25.25;;;4.20;80.20;;;;;;5135036;27;20046;-60
2020/12/06 03:31:13;;;;;;;37.90;24.52;;;4.30;80.20;;;;;;5134493;27;20035;-60
2020/12/06 03:33:38;;;;;;;35.15;24.75;;;4.30;80.10;;;;;;5133810;27;20023;-59
2020/12/06 03:36:04;;;;;;;37.38;24.90;;;4.30;80.10;;;;;;5132197;27;20035;-59
2020/12/06 03:38:29;;;;;;;36.60;23.42;;;4.30;80.20;;;;;;5132095;27;20111;-60
2020/12/06 03:40:55;;;;;;;37.83;24.33;;;4.20;80.40;;;;;;5133640;27;20030;-59
2020/12/06 03:43:21;;;;;;;38.67;25.77;;;4.20;80.50;;;;;;5116080;27;20054;-59
2020/12/06 03:45:46;;;;;;;36.17;23.95;;;4.20;80.60;;;;;;5138792;27;20027;-60
2020/12/06 03:48:12;;;;;;;35.55;23.42;;;4.10;81.10;;;;;;5113823;28;20036;-60
2020/12/06 03:50:37;;;;;;;36.85;24.90;;;4.20;81.10;;;;;;5121234;28;20068;-59
2020/12/06 03:53:03;;;;;;;39.85;26.88;;;4.10;80.80;;;;;;5122616;28;20047;-59
2020/12/06 03:55:29;;;;;;;40.45;25.27;;;4.10;81.10;;;;;;5112964;28;20050;-59
2020/12/06 03:57:54;;;;;;;41.25;25.27;;;4.00;81.50;;;;;;5111358;28;20044;-59
2020/12/06 04:00:21;;;;;;;35.67;24.80;;;4.00;81.60;;;;;;5112747;28;20054;-60
2020/12/06 04:02:50;;;;;;;36.33;25.58;;;4.00;82.00;;;;;;5094643;28;20048;-59
2020/12/06 04:05:20;;;;;;;40.00;25.05;;;4.00;82.00;;;;;;5111728;28;20047;-61
2020/12/06 04:07:50;;;;;;;39.58;25.77;;;4.10;81.80;;;;;;5105757;28;20038;-59
2020/12/06 04:10:17;;;;;;;40.67;26.08;;;4.20;81.30;;;;;;5094606;28;20036;-58
2020/12/06 04:12:43;;;;;;;37.90;24.15;;;4.20;81.10;;;;;;5075486;28;20029;-59
2020/12/06 04:15:09;;;;;;;37.25;26.05;;;4.20;81.20;;;;;;5093892;28;20089;-59
2020/12/06 04:17:37;;;;;;;36.67;25.45;;;4.20;81.20;;;;;;5107889;28;20437;-60
2020/12/06 04:20:07;;;;;;;36.13;25.10;;;4.10;81.30;;;;;;5091484;28;20043;-58
2020/12/06 04:22:33;;;;;;;36.65;24.38;;;4.20;81.40;;;;;;5092562;28;20043;-59
2020/12/06 04:24:58;;;;;;;43.30;27.50;;;4.10;81.50;;;;;;5107763;28;20040;-58
2020/12/06 04:27:24;;;;;;;42.20;25.73;;;4.20;81.40;;;;;;5112702;28;20094;-59
2020/12/06 04:29:49;;;;;;;39.33;26.20;;;4.10;81.40;;;;;;5113347;28;20019;-59
2020/12/06 04:32:15;;;;;;;38.42;25.15;;;4.20;81.50;;;;;;5113847;28;20038;-58
2020/12/06 04:34:41;;;;;;;37.60;24.80;;;4.10;81.60;;;;;;5113808;28;20063;-59
2020/12/06 04:37:07;;;;;;;39.47;26.13;;;4.10;81.80;;;;;;5118194;28;20482;-59
2020/12/06 04:39:34;;;;;;;33.40;24.65;;;4.10;82.60;;;;;;5120194;28;20605;-57
2020/12/06 04:42:00;;;;;;;38.58;25.80;;;4.10;81.90;;;;;;5119824;28;20066;-60
2020/12/06 04:44:26;;;;;;;41.28;25.75;;;4.10;81.90;;;;;;5119656;28;20151;-59
2020/12/06 04:47:02;;;;;;;39.70;26.25;;;4.10;82.10;;;;;;5101509;28;20036;-59
2020/12/06 04:49:43;;;;;;;40.97;27.15;;;4.10;82.70;;;;;;5118076;27;20055;-60
2020/12/06 04:52:17;;;;;;;40.13;27.23;;;4.10;82.40;;;;;;5116726;28;20112;-59
2020/12/06 04:54:48;;;;;;;43.92;26.30;;;3.90;82.80;;;;;;5118043;28;20059;-59
2020/12/06 04:57:18;;;;;;;38.10;23.92;;;3.90;83.00;;;;;;5118200;28;20055;-59
2020/12/06 04:59:46;;;;;;;42.85;26.63;;;4.00;82.60;;;;;;5118209;28;20035;-58
2020/12/06 05:02:16;;;;;;;40.83;27.27;;;4.10;82.50;;;;;;5118508;28;20042;-60
2020/12/06 05:04:42;;;;;;;39.83;26.45;;;4.00;82.90;;;;;;5118765;28;20073;-60
2020/12/06 05:07:09;;;;;;;38.35;26.33;;;3.80;83.50;;;;;;5120575;28;20041;-58
2020/12/06 05:09:36;;;;;;;39.95;25.45;;;4.00;83.00;;;;;;5124443;28;20038;-59
2020/12/06 05:12:03;;;;;;;38.13;26.17;;;4.00;82.40;;;;;;5123082;28;20035;-60
2020/12/06 05:14:29;;;;;;;46.88;26.33;;;4.10;82.30;;;;;;5123239;28;20046;-58
2020/12/06 05:16:56;;;;;;;38.10;25.35;;;4.00;82.30;;;;;;5123744;28;20031;-59
2020/12/06 05:19:26;;;;;;;39.00;26.80;;;4.10;82.50;;;;;;5124316;28;20027;-58
2020/12/06 05:21:53;;;;;;;40.17;26.60;;;4.10;82.00;;;;;;5120509;28;20584;-58
2020/12/06 05:24:19;;;;;;;40.70;26.55;;;4.10;82.30;;;;;;5119803;27;20038;-59
2020/12/06 05:26:45;;;;;;;39.92;26.17;;;4.10;82.20;;;;;;5120567;28;20027;-58
2020/12/06 05:29:12;;;;;;;42.08;27.00;;;4.10;82.10;;;;;;5119060;28;20577;-58
2020/12/06 05:31:38;;;;;;;40.88;25.58;;;4.00;82.30;;;;;;5119546;28;20131;-60
2020/12/06 05:34:03;;;;;;;42.17;27.58;;;3.90;82.60;;;;;;5118712;28;20059;-58
2020/12/06 05:36:29;;;;;;;38.90;26.50;;;3.90;82.90;;;;;;5119389;28;20447;-56
2020/12/06 05:38:54;;;;;;;41.75;27.27;;;3.90;83.10;;;;;;5119102;28;20032;-60
2020/12/06 05:41:20;;;;;;;42.83;28.25;;;3.90;83.10;;;;;;5119210;28;20035;-59
2020/12/06 05:43:45;;;;;;;41.90;27.30;;;3.80;83.00;;;;;;5118522;28;20034;-58
2020/12/06 05:46:14;;;;;;;41.13;26.65;;;3.70;83.50;;;;;;5100494;28;20031;-58
2020/12/06 05:48:41;;;;;;;47.10;29.23;;;3.70;83.50;;;;;;5111212;27;20504;-58
2020/12/06 05:51:07;;;;;;;48.35;29.33;;;3.60;84.00;;;;;;5117928;27;20035;-59
2020/12/06 05:53:33;;;;;;;43.40;28.80;;;3.40;84.80;;;;;;5136366;27;20035;-58
2020/12/06 05:56:09;;;;;;;48.13;31.83;;;3.40;84.80;;;;;;5135465;27;20023;-60
2020/12/06 05:58:34;;;;;;;41.30;27.38;;;3.30;85.60;;;;;;5136327;27;20041;-59
2020/12/06 06:01:01;;;;;;;43.95;30.02;;;3.40;84.80;;;;;;5136051;27;20122;-59
2020/12/06 06:03:34;;;;;;;41.63;27.45;;;3.50;84.30;;;;;;5135855;27;20115;-58
2020/12/06 06:06:03;;;;;;;42.63;28.33;;;3.60;84.30;;;;;;5136213;27;20389;-58
2020/12/06 06:08:29;;;;;;;45.35;28.92;;;3.70;83.90;;;;;;5117913;27;20121;-58
2020/12/06 06:11:27;;;;;;;48.00;30.13;;;3.30;85.70;;;;;;5135772;27;20035;-60
2020/12/06 06:13:54;;;;;;;43.10;28.63;;;3.20;86.00;;;;;;5135608;27;20118;-58
2020/12/06 06:16:21;;;;;;;44.80;29.13;;;3.40;85.30;;;;;;5135480;27;20169;-59
2020/12/06 06:18:49;;;;;;;49.40;29.95;;;3.40;85.30;;;;;;5135921;27;20024;-59
2020/12/06 06:21:21;;;;;;;44.53;27.95;;;2.90;87.90;;;;;;5135815;27;20028;-58
2020/12/06 06:23:49;;;;;;;46.97;28.75;;;3.10;87.00;;;;;;5118365;27;20504;-58
2020/12/06 06:26:17;;;;;;;46.25;30.33;;;3.20;86.20;;;;;;5138399;27;20147;-60
2020/12/06 06:28:45;;;;;;;47.55;29.85;;;3.30;85.70;;;;;;5139572;27;20027;-57
2020/12/06 06:31:14;;;;;;;49.95;29.88;;;3.40;85.30;;;;;;5118424;27;20024;-59
2020/12/06 06:33:40;;;;;;;43.17;28.13;;;3.20;86.10;;;;;;5117528;27;20038;-59
2020/12/06 06:36:09;;;;;;;42.30;28.55;;;3.20;86.40;;;;;;5134840;27;20410;-61
2020/12/06 06:38:45;;;;;;;47.80;28.58;;;3.40;85.80;;;;;;5135195;27;20022;-59
2020/12/06 06:41:12;;;;;;;44.95;29.10;;;3.30;85.60;;;;;;5135225;27;20035;-59
2020/12/06 06:43:39;;;;;;;47.55;29.85;;;3.20;86.50;;;;;;5120174;27;20031;-58
2020/12/06 06:46:16;;;;;;;44.85;27.45;;;3.40;85.80;;;;;;5114336;28;20040;-60
2020/12/06 06:48:46;;;;;;;48.38;31.08;;;3.50;85.50;;;;;;5110366;27;20051;-59
2020/12/06 06:51:19;;;;;;;43.20;27.83;;;3.50;84.90;;;;;;5135086;27;20051;-59
2020/12/06 06:53:45;;;;;;;45.35;28.50;;;3.50;85.30;;;;;;5134557;27;20508;-60
2020/12/06 06:56:11;;;;;;;40.95;26.90;;;3.60;84.90;;;;;;5134781;27;20104;-60
2020/12/06 06:58:37;;;;;;;46.90;30.27;;;3.60;84.30;;;;;;5134921;27;20033;-58
2020/12/06 07:01:19;;;;;;;48.15;30.17;;;3.60;84.70;;;;;;5134454;27;20101;-58
2020/12/06 07:03:48;;;;;;;48.55;30.50;;;3.50;85.00;;;;;;5134627;27;20505;-60
2020/12/06 07:06:44;;;;;;;48.45;31.40;;;3.30;85.70;;;;;;5116370;27;20031;-60
2020/12/06 07:09:10;;;;;;;43.67;29.02;;;3.40;85.80;;;;;;5117543;27;20080;-59
2020/12/06 07:11:38;;;;;;;43.22;29.75;;;3.50;85.70;;;;;;5139074;27;20031;-58
2020/12/06 07:14:03;;;;;;;47.03;28.08;;;3.50;85.00;;;;;;5136206;27;20504;-61
2020/12/06 07:16:29;;;;;;;45.22;29.83;;;3.50;84.80;;;;;;5116461;27;20023;-60
2020/12/06 07:18:54;;;;;;;43.25;28.02;;;3.50;85.10;;;;;;5134088;27;20109;-59
2020/12/06 07:21:20;;;;;;;47.40;31.80;;;3.60;84.60;;;;;;5134610;27;20114;-60
2020/12/06 07:23:46;;;;;;;46.05;30.90;;;3.70;84.50;;;;;;5129041;27;20454;-60
2020/12/06 07:26:12;;;;;;;45.08;28.02;;;3.60;84.30;;;;;;5096185;28;20122;-59
2020/12/06 07:28:38;;;;;;;42.05;28.35;;;3.50;84.70;;;;;;5113938;28;20035;-59
2020/12/06 07:31:03;;;;;;;43.80;29.08;;;3.50;85.20;;;;;;5113524;28;20053;-58
2020/12/06 07:33:29;;;;;;;45.75;29.30;;;3.50;85.10;;;;;;5114024;28;20038;-61
2020/12/06 07:35:55;;;;;;;46.67;29.92;;;3.50;85.20;;;;;;5113877;28;20108;-58
2020/12/06 07:38:21;;;;;;;48.28;31.40;;;3.40;85.20;;;;;;5115681;28;20036;-59
2020/12/06 07:40:46;;;;;;;48.63;30.25;;;3.30;86.20;;;;;;5095710;28;20059;-59
2020/12/06 07:43:13;;;;;;;47.85;32.38;;;3.40;86.30;;;;;;5113573;28;20043;-59
2020/12/06 07:45:39;;;;;;;46.47;30.70;;;3.20;86.50;;;;;;5095371;28;20494;-59
2020/12/06 07:48:05;;;;;;;47.90;30.73;;;3.40;86.40;;;;;;5113053;28;20491;-59
2020/12/06 07:50:31;;;;;;;43.75;29.40;;;3.40;86.20;;;;;;5113119;28;20172;-59
2020/12/06 07:53:02;;;;;;;50.45;34.10;;;3.50;85.80;;;;;;5095219;28;20035;-58
2020/12/06 07:55:28;;;;;;;47.13;31.33;;;3.50;85.80;;;;;;5113201;28;20031;-58
2020/12/06 07:58:01;;;;;;;50.63;33.50;;;3.50;85.40;;;;;;5113183;28;20041;-58
2020/12/06 08:00:42;;;;;;;49.45;32.63;;;3.60;85.40;;;;;;5113209;28;20127;-60
2020/12/06 08:03:09;;;;;;;48.47;31.05;;;3.70;85.00;;;;;;5112720;28;20482;-59
2020/12/06 08:05:40;;;;;;;46.03;30.92;;;3.70;85.00;;;;;;5073553;28;20052;-62
2020/12/06 08:08:09;;;;;;;45.63;30.52;;;3.70;84.90;;;;;;5114874;22;20043;-60
2020/12/06 08:10:36;;;;;;;46.38;31.77;;;3.80;84.60;;;;;;5057089;28;20413;-60
2020/12/06 08:13:02;;;;;;;49.15;32.10;;;3.80;84.30;;;;;;5074384;28;20549;-59
2020/12/06 08:15:29;;;;;;;47.38;31.85;;;3.80;84.60;;;;;;5091798;28;20233;-58
2020/12/06 08:17:55;;;;;;;46.28;31.48;;;3.70;85.00;;;;;;5092877;28;20455;-60
2020/12/06 08:20:24;;;;;;;51.15;33.45;;;3.80;84.60;;;;;;5074235;28;20059;-58
2020/12/06 08:23:00;;;;;;;54.97;36.33;;;3.90;84.60;;;;;;5073768;28;20443;-59
2020/12/06 08:25:29;;;;;;;59.47;38.05;;;3.90;84.40;;;;;;5073181;28;20393;-59
2020/12/06 08:27:57;;;;;;;60.08;38.03;;;3.90;84.70;;;;;;5072296;28;20056;-61
2020/12/06 08:30:25;;;;;;;54.78;34.85;;;4.00;84.20;;;;;;5072407;28;20029;-59
2020/12/06 08:33:02;;;;;;;50.00;34.28;;;4.00;84.10;;;;;;5072025;28;20123;-60
2020/12/06 08:35:48;;;;;;;47.10;32.50;;;4.00;84.30;;;;;;5053440;28;20032;-59
2020/12/06 08:38:23;;;;;;;53.55;36.05;;;4.00;84.10;;;;;;5054502;28;20036;-54
2020/12/06 08:41:12;;;;;;;53.85;34.55;;;4.10;84.00;;;;;;5072484;28;20067;-57
2020/12/06 08:43:49;;;;;;;49.47;32.33;;;4.00;83.90;;;;;;5088425;28;20074;-58
2020/12/06 08:46:25;;;;;;;53.53;32.78;;;4.00;84.10;;;;;;5090466;28;20030;-61
2020/12/06 08:48:53;;;;;;;49.50;31.58;;;4.10;84.20;;;;;;5089627;28;20064;-57
2020/12/06 08:51:27;;;;;;;52.95;33.78;;;4.00;84.50;;;;;;5088632;28;20058;-58
2020/12/06 08:54:02;;;;;;;50.95;33.22;;;4.00;84.50;;;;;;5073644;28;20518;-60
2020/12/06 08:56:28;;;;;;;;;;;4.10;84.20;;;;;;5053482;28;20123;-61
2020/12/06 08:58:59;;;;;;;45.30;30.75;;;4.00;85.30;;;;;;5053802;28;19905;-59
2020/12/06 09:01:25;;;;;;;48.65;32.75;;;4.00;84.80;;;;;;5056791;28;20040;-58
2020/12/06 09:03:50;;;;;;;51.55;32.90;;;4.00;85.20;;;;;;5071221;28;20082;-58
2020/12/06 09:06:17;;;;;;;47.63;33.47;;;4.00;85.30;;;;;;5073813;28;20116;-59
2020/12/06 09:08:46;;;;;;;50.58;32.03;;;4.00;85.20;;;;;;5073346;28;20068;-58
2020/12/06 09:11:20;;;;;;;47.42;32.10;;;4.00;85.30;;;;;;5055975;28;20051;-59
2020/12/06 09:13:46;;;;;;;48.42;34.22;;;4.00;85.00;;;;;;5036607;28;20499;-58
2020/12/06 09:16:13;;;;;;;61.60;38.92;;;4.10;85.10;;;;;;5054066;28;20037;-60
2020/12/06 09:18:39;;;;;;;55.17;36.25;;;4.20;84.90;;;;;;5057341;28;20028;-60
2020/12/06 09:21:08;;;;;;;49.67;32.35;;;4.30;84.50;;;;;;5091830;28;20084;-58
2020/12/06 09:23:36;;;;;;;49.22;31.20;;;4.30;84.00;;;;;;5058248;28;20035;-58
2020/12/06 09:26:03;;;;;;;52.88;36.15;;;4.30;83.90;;;;;;5090532;28;20028;-57
2020/12/06 09:28:29;;;;;;;52.75;35.75;;;4.30;84.10;;;;;;5076425;28;20426;-59
2020/12/06 09:30:55;;;;;;;55.80;35.97;;;4.30;84.10;;;;;;5044725;28;20031;-59
2020/12/06 09:33:20;;;;;;;50.05;33.92;;;4.30;84.20;;;;;;5095407;28;20116;-59
2020/12/06 09:35:47;;;;;;;47.85;33.85;;;4.40;84.10;;;;;;5092486;28;20759;-60
2020/12/06 09:38:13;;;;;;;45.53;31.33;;;4.40;83.90;;;;;;5094978;28;20042;-59
2020/12/06 09:40:39;;;;;;;45.10;31.27;;;4.50;84.00;;;;;;5093992;28;20072;-58
2020/12/06 09:43:07;;;;;;;49.95;33.63;;;4.50;83.90;;;;;;5082989;28;20036;-59
2020/12/06 09:45:33;;;;;;;49.47;32.22;;;4.40;84.40;;;;;;5075081;28;20120;-60
2020/12/06 09:47:58;;;;;;;48.92;32.15;;;4.30;84.80;;;;;;5103143;28;20106;-58
2020/12/06 09:50:24;;;;;;;54.33;35.10;;;4.40;84.90;;;;;;5093614;28;20047;-57
2020/12/06 09:52:50;;;;;;;64.72;38.60;;;4.50;84.60;;;;;;5094888;28;20036;-61
2020/12/06 09:55:15;;;;;;;52.78;34.08;;;4.60;84.40;;;;;;5077023;28;20045;-59
2020/12/06 09:57:41;;;;;;;61.08;37.47;;;4.60;84.10;;;;;;5039848;28;20391;-58
2020/12/06 10:00:09;;;;;;;50.20;32.03;;;4.60;84.70;;;;;;5023648;28;20386;-61
2020/12/06 10:02:35;;;;;;;46.83;31.10;;;4.60;84.30;;;;;;5056098;28;20494;-59
2020/12/06 10:05:00;;;;;;;48.22;32.60;;;4.70;83.80;;;;;;5057524;28;20032;-59
2020/12/06 10:07:26;;;;;;;49.72;31.88;;;4.70;83.70;;;;;;5092279;28;20036;-55
2020/12/06 10:09:55;;;;;;;48.05;32.95;;;4.60;84.60;;;;;;5091153;28;20549;-60
2020/12/06 10:12:23;;;;;;;43.88;30.25;;;4.70;85.60;;;;;;5094389;28;20036;-59
2020/12/06 10:14:51;;;;;;;50.95;34.38;;;4.80;85.90;;;;;;5064835;28;20040;-60
2020/12/06 10:17:17;;;;;;;48.53;32.72;;;4.80;84.80;;;;;;5057045;28;20070;-59
2020/12/06 10:19:43;;;;;;;49.38;32.47;;;4.80;84.50;;;;;;5041708;28;20113;-58
2020/12/06 10:22:09;;;;;;;48.10;33.30;;;4.90;84.10;;;;;;5058016;28;20587;-60
2020/12/06 10:24:34;;;;;;;43.83;31.20;;;4.90;84.00;;;;;;5068858;28;20031;-61
2020/12/06 10:27:00;;;;;;;52.15;34.72;;;5.00;83.70;;;;;;5094046;28;20038;-59
2020/12/06 10:29:25;;;;;;;44.05;30.95;;;5.00;83.40;;;;;;5048304;28;20075;-60
2020/12/06 10:31:52;;;;;;;45.53;32.05;;;5.00;83.70;;;;;;5040124;28;20044;-60
2020/12/06 10:34:19;;;;;;;48.60;32.47;;;5.00;83.60;;;;;;5054670;28;20078;-58
2020/12/06 10:36:59;;;;;;;50.67;32.92;;;5.00;83.40;;;;;;5054988;28;20036;-59
2020/12/06 10:39:27;;;;;;;50.03;31.77;;;4.90;83.90;;;;;;5073533;28;20036;-61
2020/12/06 10:41:55;;;;;;;44.80;31.40;;;5.00;83.80;;;;;;5060544;28;20035;-59
2020/12/06 10:44:22;;;;;;;46.25;30.63;;;4.90;83.90;;;;;;5055332;28;20040;-59
2020/12/06 10:46:48;;;;;;;49.60;34.03;;;4.90;83.90;;;;;;5074106;28;20473;-59
2020/12/06 10:49:14;;;;;;;46.47;32.17;;;4.90;84.10;;;;;;5092169;28;20031;-60
2020/12/06 10:51:41;;;;;;;50.58;33.65;;;5.00;83.80;;;;;;5084944;28;20029;-60
2020/12/06 10:54:12;;;;;;;46.53;32.00;;;5.00;83.80;;;;;;5054901;28;20436;-61
2020/12/06 10:56:39;;;;;;;47.63;32.22;;;4.80;84.30;;;;;;5071717;28;20044;-59
2020/12/06 10:59:08;;;;;;;44.53;31.17;;;4.90;84.80;;;;;;5073202;28;20151;-57
2020/12/06 11:01:35;;;;;;;48.53;32.50;;;4.90;84.50;;;;;;5067184;28;20047;-59
2020/12/06 11:04:03;;;;;;;53.92;36.78;;;4.90;84.70;;;;;;5075192;28;20024;-61
2020/12/06 11:06:29;;;;;;;55.15;35.92;;;4.80;84.70;;;;;;5063852;28;20044;-58
2020/12/06 11:08:55;;;;;;;50.60;33.55;;;4.80;84.90;;;;;;5073015;28;20064;-56
2020/12/06 11:11:22;;;;;;;45.53;33.00;;;4.80;84.80;;;;;;5063763;28;20113;-58
2020/12/06 11:13:47;;;;;;;47.03;33.97;;;4.80;85.10;;;;;;5092894;28;20479;-58
2020/12/06 11:16:18;;;;;;;48.40;33.40;;;5.00;84.70;;;;;;5084786;28;20041;-60
2020/12/06 11:18:47;;;;;;;50.78;33.42;;;5.00;84.40;;;;;;5037801;28;20033;-60
2020/12/06 11:21:16;;;;;;;49.08;34.42;;;5.10;84.40;;;;;;5073760;28;20155;-61
2020/12/06 11:23:43;;;;;;;46.05;31.40;;;5.10;83.80;;;;;;5077113;28;20078;-58
2020/12/06 11:26:09;;;;;;;49.35;34.03;;;5.10;83.70;;;;;;5091632;28;20038;-60
2020/12/06 11:28:34;;;;;;;45.00;32.28;;;5.20;83.60;;;;;;5074654;28;20032;-58
2020/12/06 11:31:00;;;;;;;49.13;35.47;;;5.20;83.80;;;;;;5088419;28;20036;-59
2020/12/06 11:33:26;;;;;;;51.40;33.58;;;5.20;83.90;;;;;;5072450;28;20036;-60
2020/12/06 11:35:51;;;;;;;44.40;33.65;;;5.30;83.70;;;;;;5073699;28;20071;-57
2020/12/06 11:38:17;;;;;;;47.78;33.15;;;5.30;83.70;;;;;;5074434;28;20032;-59
2020/12/06 11:40:43;;;;;;;50.67;36.85;;;5.20;83.80;;;;;;5092175;28;20036;-60
2020/12/06 11:43:09;;;;;;;51.25;36.25;;;5.30;83.60;;;;;;5082792;28;20695;-62
2020/12/06 11:45:35;;;;;;;47.08;34.65;;;5.40;83.50;;;;;;5092058;28;20032;-62
2020/12/06 11:48:01;;;;;;;49.25;36.88;;;5.30;83.80;;;;;;5072163;28;20027;-60
2020/12/06 11:50:27;;;;;;;49.28;35.33;;;5.30;83.70;;;;;;5113477;28;20064;-61
2020/12/06 11:52:56;;;;;;;55.38;35.25;;;5.20;85.00;;;;;;5042418;28;20060;-61
2020/12/06 11:55:21;;;;;;;50.92;34.40;;;5.10;84.90;;;;;;5054825;28;20470;-64
2020/12/06 11:57:47;;;;;;;50.80;34.60;;;5.00;85.90;;;;;;5057820;28;20431;-61
2020/12/06 12:00:12;;;;;;;49.83;34.47;;;5.20;85.20;;;;;;5056688;28;20067;-59
2020/12/06 12:02:38;;;;;;;47.67;34.20;;;5.30;84.50;;;;;;5075369;28;20040;-63
2020/12/06 12:05:06;;;;;;;49.58;34.45;;;5.40;84.10;;;;;;5054054;28;20044;-62
2020/12/06 12:07:32;;;;;;;49.88;35.25;;;5.30;85.00;;;;;;5090478;28;20375;-60
2020/12/06 12:09:58;;;;;;;51.47;34.85;;;5.30;84.50;;;;;;5074256;28;20047;-62
2020/12/06 12:12:26;;;;;;;44.42;32.47;;;5.30;84.70;;;;;;5040037;28;20090;-60
2020/12/06 12:14:52;;;;;;;47.00;31.85;;;5.40;84.30;;;;;;5071517;28;20033;-58
2020/12/06 12:17:18;;;;;;;47.05;32.05;;;5.60;84.70;;;;;;5053301;28;20038;-60
2020/12/06 12:19:43;;;;;;;42.78;32.38;;;6.00;85.80;;;;;;5057276;28;20059;-59
2020/12/06 12:22:09;;;;;;;46.17;31.77;;;6.30;83.60;;;;;;5059458;28;20540;-58
2020/12/06 12:24:35;;;;;;;43.63;32.35;;;6.50;80.90;;;;;;5083226;28;20024;-59
2020/12/06 12:27:01;;;;;;;51.85;32.90;;;6.40;80.90;;;;;;5090977;28;20409;-59
2020/12/06 12:29:27;;;;;;;46.90;34.53;;;6.40;80.50;;;;;;5091526;28;20522;-60
2020/12/06 12:31:54;;;;;;;47.63;33.90;;;6.30;81.10;;;;;;5090259;28;20063;-59
2020/12/06 12:34:19;;;;;;;45.60;33.03;;;6.20;81.20;;;;;;5091542;28;20547;-60
2020/12/06 12:36:46;;;;;;;46.67;33.97;;;6.20;81.50;;;;;;5081949;28;20036;-59
2020/12/06 12:39:12;;;;;;;41.47;32.05;;;6.20;81.70;;;;;;5071808;28;20502;-60